createdAt,value
2023-04-18T00:01:51.187Z,32.74
2023-04-18T00:04:18.537Z,33.03
2023-04-18T00:06:47.225Z,32.62
2023-04-18T00:09:14.704Z,33.19
2023-04-18T00:11:41.341Z,33.47
2023-04-18T00:14:08.611Z,33.21
2023-04-18T00:16:36.371Z,32.94
2023-04-18T00:19:04.895Z,32.99
2023-04-18T00:21:32.142Z,33.31
2023-04-18T00:24:00.101Z,33.53
2023-04-18T00:26:28.059Z,32.93
2023-04-18T00:28:54.729Z,33.38
2023-04-18T00:31:21.478Z,33.17
2023-04-18T00:33:49.280Z,33.91
2023-04-18T00:36:15.866Z,35.54
2023-04-18T00:38:42.535Z,35.59
2023-04-18T00:41:09.114Z,35.33
2023-04-18T00:43:35.976Z,34.90
2023-04-18T00:46:02.729Z,35.55
2023-04-18T00:48:30.514Z,35.70
2023-04-18T00:50:57.402Z,35.30
2023-04-18T00:53:24.181Z,35.85
2023-04-18T00:55:51.303Z,35.11
2023-04-18T00:58:17.980Z,34.83
2023-04-18T01:00:47.595Z,34.45
2023-04-18T01:03:14.833Z,34.18
2023-04-18T01:05:41.694Z,33.58
2023-04-18T01:08:09.280Z,34.20
2023-04-18T01:10:36.169Z,34.44
2023-04-18T01:13:21.454Z,34.71
2023-04-18T01:15:50.039Z,34.95
2023-04-18T01:18:17.314Z,34.98
2023-04-18T01:20:49.422Z,34.77
2023-04-18T01:23:17.210Z,34.22
2023-04-18T01:25:44.925Z,35.25
2023-04-18T01:28:15.161Z,34.86
2023-04-18T01:30:41.879Z,34.97
2023-04-18T01:33:09.870Z,35.32
2023-04-18T01:35:36.538Z,35.18
2023-04-18T01:38:03.479Z,35.25
2023-04-18T01:40:30.342Z,36.04
2023-04-18T01:42:57.002Z,37.70
2023-04-18T01:45:23.813Z,37.58
2023-04-18T01:47:50.547Z,37.40
2023-04-18T01:50:17.243Z,37.21
2023-04-18T01:52:43.855Z,37.16
2023-04-18T01:55:10.707Z,37.57
2023-04-18T01:57:37.436Z,37.71
2023-04-18T02:00:06.551Z,38.56
2023-04-18T02:02:33.353Z,38.62
2023-04-18T02:05:00.474Z,37.60
2023-04-18T02:07:27.037Z,37.31
2023-04-18T02:09:53.664Z,37.87
2023-04-18T02:12:21.055Z,37.07
2023-04-18T02:14:52.374Z,37.74
2023-04-18T02:17:21.624Z,37.39
2023-04-18T02:19:48.333Z,37.51
2023-04-18T02:22:14.958Z,36.75
2023-04-18T02:24:41.656Z,38.35
2023-04-18T02:27:08.360Z,38.28
2023-04-18T02:29:35.022Z,38.51
2023-04-18T02:32:02.436Z,37.83
2023-04-18T02:34:29.104Z,37.32
2023-04-18T02:36:55.688Z,38.03
2023-04-18T02:39:22.332Z,37.71
2023-04-18T02:41:48.876Z,37.49
2023-04-18T02:44:17.080Z,37.11
2023-04-18T02:46:44.485Z,36.85
2023-04-18T02:49:11.166Z,36.87
2023-04-18T02:51:37.829Z,36.65
2023-04-18T02:54:05.271Z,36.63
2023-04-18T02:56:31.864Z,36.55
2023-04-18T02:58:58.475Z,36.86
2023-04-18T03:01:25.218Z,36.57
2023-04-18T03:03:52.270Z,36.54
2023-04-18T03:06:21.388Z,36.41
2023-04-18T03:08:48.017Z,36.42
2023-04-18T03:11:14.574Z,36.35
2023-04-18T03:13:41.126Z,35.76
2023-04-18T03:16:08.691Z,36.12
2023-04-18T03:18:35.287Z,36.29
2023-04-18T03:21:01.854Z,35.87
2023-04-18T03:23:29.291Z,35.56
2023-04-18T03:25:55.921Z,35.79
2023-04-18T03:28:22.567Z,35.56
2023-04-18T03:30:49.204Z,35.59
2023-04-18T03:33:18.845Z,35.34
2023-04-18T03:35:45.540Z,35.37
2023-04-18T03:38:12.528Z,35.14
2023-04-18T03:40:39.126Z,35.21
2023-04-18T03:43:05.829Z,35.42
2023-04-18T03:45:32.622Z,35.55
2023-04-18T03:47:59.298Z,35.79
2023-04-18T03:50:26.017Z,35.25
2023-04-18T03:52:54.401Z,36.04
2023-04-18T03:55:21.857Z,35.81
2023-04-18T03:57:48.429Z,35.65
2023-04-18T04:00:16.224Z,35.57
2023-04-18T04:02:42.955Z,35.37
2023-04-18T04:05:10.013Z,35.24
2023-04-18T04:07:37.661Z,35.09
2023-04-18T04:10:04.581Z,35.13
2023-04-18T04:12:31.239Z,34.84
2023-04-18T04:14:59.679Z,34.69
2023-04-18T04:17:26.339Z,34.58
2023-04-18T04:19:53.032Z,34.74
2023-04-18T04:22:21.220Z,34.71
2023-04-18T04:24:47.998Z,34.77
2023-04-18T04:27:14.742Z,34.50
2023-04-18T04:29:41.512Z,34.14
2023-04-18T04:32:08.198Z,34.19
2023-04-18T04:34:35.828Z,34.02
2023-04-18T04:37:03.368Z,34.01
2023-04-18T04:39:29.922Z,34.11
2023-04-18T04:41:57.649Z,33.20
2023-04-18T04:44:27.565Z,33.24
2023-04-18T04:46:54.547Z,32.98
2023-04-18T04:49:21.255Z,32.98
2023-04-18T04:51:47.894Z,32.73
2023-04-18T04:54:14.684Z,32.18
2023-04-18T04:56:41.392Z,32.20
2023-04-18T04:59:09.477Z,31.73
2023-04-18T05:01:36.229Z,31.73
2023-04-18T05:04:03.047Z,31.62
2023-04-18T05:06:29.798Z,31.08
2023-04-18T05:08:57.591Z,31.44
2023-04-18T05:11:24.270Z,31.41
2023-04-18T05:13:52.400Z,31.09
2023-04-18T05:16:19.059Z,31.50
2023-04-18T05:18:45.957Z,31.62
2023-04-18T05:21:13.570Z,31.56
2023-04-18T05:23:40.192Z,31.48
2023-04-18T05:26:07.050Z,31.42
2023-04-18T05:28:33.766Z,31.51
2023-04-18T05:31:03.164Z,31.17
2023-04-18T05:33:33.898Z,31.03
2023-04-18T05:36:00.721Z,31.17
2023-04-18T05:38:27.344Z,31.30
2023-04-18T05:40:55.918Z,31.61
2023-04-18T05:43:23.302Z,32.02
2023-04-18T05:45:52.460Z,31.78
2023-04-18T05:48:19.416Z,32.37
2023-04-18T05:50:46.930Z,32.42
2023-04-18T05:53:13.494Z,32.20
2023-04-18T05:55:41.065Z,32.07
2023-04-18T05:58:07.916Z,32.06
2023-04-18T06:00:35.753Z,31.88
2023-04-18T06:03:02.620Z,31.62
2023-04-18T06:05:29.807Z,31.35
2023-04-18T06:07:56.731Z,30.07
2023-04-18T06:10:23.314Z,29.69
2023-04-18T06:12:49.953Z,29.76
2023-04-18T06:15:16.808Z,29.68
2023-04-18T06:17:44.621Z,29.26
2023-04-18T06:20:11.556Z,29.07
2023-04-18T06:22:38.191Z,29.13
2023-04-18T06:25:05.702Z,29.47
2023-04-18T06:27:32.366Z,28.87
2023-04-18T06:29:59.153Z,29.00
2023-04-18T06:32:26.127Z,28.73
2023-04-18T06:34:56.844Z,28.63
2023-04-18T06:37:24.055Z,28.31
2023-04-18T06:39:50.740Z,28.27
2023-04-18T06:42:19.119Z,28.33
2023-04-18T06:44:46.785Z,28.42
2023-04-18T06:47:13.463Z,28.14
2023-04-18T06:49:40.588Z,28.27
2023-04-18T06:52:07.272Z,28.34
2023-04-18T06:54:33.880Z,28.40
2023-04-18T06:57:03.777Z,28.12
2023-04-18T06:59:30.719Z,28.29
2023-04-18T07:01:57.332Z,28.41
2023-04-18T07:05:05.586Z,28.45
2023-04-18T07:07:33.105Z,28.53
2023-04-18T07:10:00.061Z,28.33
2023-04-18T07:12:28.000Z,28.45
2023-04-18T07:14:55.245Z,28.26
2023-04-18T07:17:21.913Z,28.23
2023-04-18T07:19:48.586Z,28.39
2023-04-18T07:22:15.253Z,28.04
2023-04-18T07:24:42.242Z,28.19
2023-04-18T07:27:09.667Z,28.33
2023-04-18T07:29:36.341Z,28.37
2023-04-18T07:32:03.040Z,28.48
2023-04-18T07:34:30.246Z,28.10
2023-04-18T07:36:57.470Z,28.33
2023-04-18T07:39:24.117Z,27.92
2023-04-18T07:41:50.786Z,28.25
2023-04-18T07:44:18.298Z,28.25
2023-04-18T07:46:45.152Z,28.34
2023-04-18T07:49:12.182Z,28.53
2023-04-18T07:51:38.938Z,28.68
2023-04-18T07:54:05.578Z,28.38
2023-04-18T07:56:32.222Z,28.38
2023-04-18T07:58:58.824Z,27.81
2023-04-18T08:01:27.223Z,27.26
2023-04-18T08:03:55.235Z,27.57
2023-04-18T08:06:22.016Z,26.81
2023-04-18T08:08:48.749Z,26.13
2023-04-18T08:11:18.370Z,25.96
2023-04-18T08:13:44.931Z,26.01
2023-04-18T08:16:11.628Z,26.05
2023-04-18T08:18:39.120Z,25.51
2023-04-18T08:21:05.830Z,24.19
2023-04-18T08:23:32.416Z,24.11
2023-04-18T08:26:00.580Z,24.85
2023-04-18T08:28:27.286Z,24.23
2023-04-18T08:30:55.278Z,24.10
2023-04-18T08:33:24.474Z,23.21
2023-04-18T08:35:51.602Z,23.40
2023-04-18T08:38:18.895Z,24.23
2023-04-18T08:40:45.964Z,25.46
2023-04-18T08:43:16.730Z,24.94
2023-04-18T08:45:44.736Z,25.25
2023-04-18T08:48:14.111Z,25.82
2023-04-18T08:50:41.712Z,26.02
2023-04-18T08:53:08.852Z,26.38
2023-04-18T08:55:37.201Z,27.10
2023-04-18T08:58:07.157Z,26.79
2023-04-18T09:00:34.257Z,27.09
2023-04-18T09:03:03.016Z,26.83
2023-04-18T09:05:29.913Z,27.16
2023-04-18T09:07:56.872Z,27.13
2023-04-18T09:10:33.103Z,26.64
2023-04-18T09:13:03.268Z,26.95
2023-04-18T09:15:30.533Z,26.74
2023-04-18T09:18:00.311Z,26.72
2023-04-18T09:20:36.597Z,27.05
2023-04-18T09:23:11.727Z,26.65
2023-04-18T09:25:48.100Z,26.46
2023-04-18T09:28:29.136Z,25.82
2023-04-18T09:30:57.676Z,26.52
2023-04-18T09:33:30.230Z,26.63
2023-04-18T09:35:57.341Z,26.10
2023-04-18T09:38:40.464Z,26.43
2023-04-18T09:41:11.548Z,26.85
2023-04-18T09:43:38.871Z,26.60
2023-04-18T09:46:07.365Z,26.91
2023-04-18T09:48:34.194Z,26.97
2023-04-18T09:51:06.272Z,26.59
2023-04-18T09:53:49.039Z,27.23
2023-04-18T09:56:26.230Z,27.02
2023-04-18T09:59:10.056Z,27.54
2023-04-18T10:01:37.296Z,27.73
2023-04-18T10:04:06.741Z,27.75
2023-04-18T18:34:32.174Z,55.40
2023-04-18T18:36:58.733Z,55.83
2023-04-18T18:39:25.313Z,57.20
2023-04-18T18:41:58.607Z,57.46
2023-04-18T18:44:25.145Z,57.84
2023-04-18T18:46:54.279Z,57.73
2023-04-18T18:49:21.845Z,57.95
2023-04-18T18:51:48.386Z,57.84
2023-04-18T18:54:17.124Z,57.91
2023-04-18T18:56:45.283Z,57.98
2023-04-18T18:59:12.101Z,57.40
2023-04-18T19:01:38.900Z,58.09
2023-04-18T19:04:05.799Z,58.01
2023-04-18T19:06:32.579Z,57.87
2023-04-18T19:09:01.836Z,57.81
2023-04-18T19:11:29.531Z,58.10
2023-04-18T19:13:56.110Z,57.68
2023-04-18T19:16:23.095Z,58.32
2023-04-18T19:18:52.543Z,58.58
2023-04-18T19:21:20.282Z,59.29
2023-04-18T19:23:46.973Z,59.45
2023-04-18T19:26:14.606Z,59.50
2023-04-18T19:28:41.573Z,59.51
2023-04-18T19:31:09.605Z,59.50
2023-04-18T19:33:36.260Z,59.72
2023-04-18T19:36:02.949Z,59.49
2023-04-18T19:38:29.504Z,59.52
2023-04-18T19:40:56.148Z,59.73
2023-04-18T19:43:22.705Z,59.66
2023-04-18T19:45:50.928Z,60.02
2023-04-18T19:48:17.636Z,59.78
2023-04-18T19:50:44.704Z,60.52
2023-04-18T19:53:11.254Z,60.94
2023-04-18T19:55:38.420Z,60.91
2023-04-18T19:58:05.873Z,61.64
2023-04-18T20:00:34.154Z,61.11
2023-04-18T20:03:02.761Z,61.34
2023-04-18T20:05:29.481Z,60.98
2023-04-18T20:07:56.128Z,61.16
2023-04-18T20:10:24.459Z,61.52
2023-04-18T20:12:51.198Z,61.74
2023-04-18T20:15:17.860Z,61.60
2023-04-18T20:17:44.717Z,61.79
2023-04-18T20:20:11.908Z,61.97
2023-04-18T20:22:40.387Z,62.60
2023-04-18T20:25:07.275Z,62.49
2023-04-18T20:27:33.896Z,62.97
2023-04-18T20:30:00.492Z,62.87
2023-04-18T20:32:27.643Z,62.79
2023-04-18T20:34:55.073Z,63.10
2023-04-18T20:37:21.665Z,63.11
2023-04-18T20:39:48.641Z,63.00
2023-04-18T20:42:15.884Z,63.31
2023-04-18T20:44:46.795Z,63.99
2023-04-18T20:47:15.472Z,64.25
2023-04-18T20:49:42.535Z,64.04
2023-04-18T20:52:13.355Z,64.63
2023-04-18T20:54:41.199Z,64.43
2023-04-18T20:57:08.152Z,64.62
2023-04-18T20:59:34.742Z,64.50
2023-04-18T21:02:01.535Z,64.70
2023-04-18T21:04:28.411Z,65.28
2023-04-18T21:06:55.115Z,65.18
2023-04-18T21:09:21.806Z,65.01
2023-04-18T21:11:48.358Z,65.27
2023-04-18T21:14:17.123Z,65.62
2023-04-18T21:16:44.062Z,64.90
2023-04-18T21:19:11.076Z,65.47
2023-04-18T21:21:37.677Z,65.03
2023-04-18T21:24:06.727Z,65.16
2023-04-18T21:26:33.322Z,65.67
2023-04-18T21:29:04.807Z,65.74
2023-04-18T21:31:33.818Z,65.27
2023-04-18T21:34:03.196Z,66.02
2023-04-18T21:36:30.990Z,65.60
2023-04-18T21:38:59.285Z,65.67
2023-04-18T21:41:26.309Z,65.29
2023-04-18T21:43:53.242Z,65.92
2023-04-18T21:46:20.921Z,66.27
2023-04-18T21:48:47.910Z,65.49
2023-04-18T21:51:16.833Z,65.84
2023-04-18T21:53:43.710Z,66.42
2023-04-18T21:56:10.990Z,66.49
2023-04-18T21:58:37.727Z,66.91
2023-04-18T22:01:04.471Z,65.88
2023-04-18T22:03:31.857Z,66.75
2023-04-18T22:05:58.947Z,66.79
2023-04-18T22:08:26.329Z,66.68
2023-04-18T22:11:00.390Z,66.72
2023-04-18T22:13:34.834Z,66.85
2023-04-18T22:16:03.157Z,66.90
2023-04-18T22:18:33.801Z,67.30
2023-04-18T22:21:03.307Z,67.00
2023-04-18T22:23:30.665Z,67.32
2023-04-18T22:25:57.228Z,67.55
2023-04-18T22:28:23.862Z,67.47
2023-04-18T22:30:51.157Z,67.50
2023-04-18T22:33:19.399Z,67.32
2023-04-18T22:35:48.621Z,67.78
2023-04-18T22:38:15.851Z,68.15
2023-04-18T22:40:42.451Z,68.32
2023-04-18T22:43:12.117Z,69.27
2023-04-18T22:45:38.681Z,69.35
2023-04-18T22:48:05.441Z,68.71
2023-04-18T22:50:33.594Z,69.54
2023-04-18T22:53:00.146Z,69.87
2023-04-18T22:55:26.711Z,69.91
2023-04-18T22:57:54.017Z,69.22
2023-04-18T23:00:20.651Z,70.08
2023-04-18T23:02:47.331Z,69.54
2023-04-18T23:05:16.657Z,69.59
2023-04-18T23:07:43.260Z,70.54
2023-04-18T23:10:10.499Z,70.80
2023-04-18T23:12:37.110Z,70.40
2023-04-18T23:15:04.003Z,70.56
2023-04-18T23:17:30.636Z,70.80
2023-04-18T23:19:57.934Z,70.35
2023-04-18T23:22:24.576Z,70.83
2023-04-18T23:24:51.447Z,70.66
2023-04-18T23:27:19.825Z,70.61
2023-04-18T23:29:49.537Z,70.67
2023-04-18T23:32:16.391Z,71.02
2023-04-18T23:34:43.045Z,71.18
2023-04-18T23:37:09.732Z,70.84
2023-04-18T23:39:36.432Z,71.24
2023-04-18T23:42:03.874Z,71.67
2023-04-18T23:44:31.687Z,71.28
2023-04-18T23:46:58.968Z,72.40
2023-04-18T23:49:27.652Z,72.79
2023-04-18T23:51:54.260Z,73.21
2023-04-18T23:54:20.888Z,72.53
2023-04-18T23:56:47.473Z,71.91
2023-04-18T23:59:14.030Z,71.78
